Time;durP1;ratioP1;P1;durP2;ratioP2;P2;SDS_P1;SDS_P2;PMS_P1;PMS_P2;Temp;Humidity;BMP_temperature;BMP_pressure;BME280_temperature;BME280_humidity;BME280_pressure;Samples;Min_cycle;Max_cycle;Signal;HPM_P1;HPM_P2
2022/08/11 00:01:26;;;;;;;8.73;5.87;;;;;;;19.82;70.58;100839.05;1763453;80;21381;-45
2022/08/11 00:04:01;;;;;;;8.68;6.62;;;;;;;19.79;70.66;100840.72;1776427;80;20984;-45
2022/08/11 00:06:31;;;;;;;9.93;6.87;;;;;;;19.82;70.61;100846.20;1769386;80;21497;-45
2022/08/11 00:08:58;;;;;;;10.13;7.30;;;;;;;19.84;70.59;100850.89;1765661;80;21074;-45
2022/08/11 00:11:44;;;;;;;12.30;7.30;;;;;;;19.84;70.53;100846.38;1767172;80;21078;-45
2022/08/11 00:14:27;;;;;;;8.18;6.22;;;;;;;19.81;70.69;100846.71;1767203;79;22048;-45
2022/08/11 00:16:59;;;;;;;9.08;6.28;;;;;;;19.83;70.80;100839.36;1762698;80;21074;-46
2022/08/11 00:19:38;;;;;;;11.73;5.95;;;;;;;19.86;70.46;100832.34;1766417;79;21074;-46
2022/08/11 00:22:05;;;;;;;12.93;5.50;;;;;;;19.89;70.38;100833.84;1755294;80;21423;-46
2022/08/11 00:24:34;;;;;;;8.10;5.83;;;;;;;19.92;70.61;100832.65;1768288;80;21093;-46
2022/08/11 00:27:01;;;;;;;8.00;5.72;;;;;;;19.91;70.43;100833.16;1766861;79;21122;-45
2022/08/11 00:29:28;;;;;;;8.58;5.83;;;;;;;19.90;70.22;100834.67;1753281;80;21138;-45
2022/08/11 00:31:56;;;;;;;6.90;5.50;;;;;;;19.91;69.87;100832.34;1761633;80;21098;-45
2022/08/11 00:34:29;;;;;;;10.30;6.15;;;;;;;19.92;69.98;100832.65;1754570;80;21522;-46
2022/08/11 00:37:08;;;;;;;9.43;6.15;;;;;;;19.93;70.03;100832.99;1763654;79;21097;-46
2022/08/11 00:39:45;;;;;;;9.58;5.80;;;;;;;19.91;69.93;100837.68;1759608;80;21963;-45
2022/08/11 00:42:23;;;;;;;10.35;5.35;;;;;;;19.88;69.94;100846.03;1742213;80;21020;-45
2022/08/11 00:45:24;;;;;;;8.15;5.85;;;;;;;19.91;70.07;100844.36;1758891;80;21669;-45
2022/08/11 00:48:03;;;;;;;8.18;5.97;;;;;;;19.94;69.85;100842.17;1757436;80;21046;-45
2022/08/11 00:51:13;;;;;;;8.25;5.70;;;;;;;19.96;69.80;100840.16;1762451;80;21930;-46
2022/08/11 00:54:27;;;;;;;9.30;5.92;;;;;;;19.93;69.79;100835.16;1760312;80;21134;-46
2022/08/11 00:57:17;;;;;;;6.33;4.92;;;;;;;19.85;69.82;100823.16;1764774;80;21525;-47
2022/08/11 00:59:58;;;;;;;7.22;5.20;;;;;;;19.80;69.87;100823.70;1771002;80;21089;-46
2022/08/11 01:02:53;;;;;;;7.50;5.40;;;;;;;19.80;70.08;100816.17;1758872;80;21094;-46
2022/08/11 01:05:50;;;;;;;7.42;4.97;;;;;;;19.78;70.19;100811.52;1762850;80;21050;-46
2022/08/11 01:08:56;;;;;;;6.92;4.92;;;;;;;19.75;70.23;100814.53;1763180;80;21187;-45
2022/08/11 01:11:43;;;;;;;10.05;4.97;;;;;;;19.71;70.40;100810.01;1769021;79;21486;-45
2022/08/11 01:14:59;;;;;;;8.03;5.00;;;;;;;19.73;70.34;100812.51;1713667;80;21078;-46
2022/08/11 01:18:03;;;;;;;7.60;5.33;;;;;;;19.73;70.41;100807.16;1756191;79;21114;-47
2022/08/11 01:20:59;;;;;;;6.72;4.90;;;;;;;19.69;70.50;100805.34;1760177;80;21042;-47
2022/08/11 01:23:55;;;;;;;6.97;4.70;;;;;;;19.61;70.79;100798.19;1758216;80;22630;-46
2022/08/11 01:26:51;;;;;;;8.15;5.22;;;;;;;19.58;70.90;100793.19;1758416;79;21070;-46
2022/08/11 01:29:57;;;;;;;8.08;5.10;;;;;;;19.58;70.93;100795.03;1714253;82;21200;-47
2022/08/11 01:33:00;;;;;;;9.05;5.25;;;;;;;19.55;71.17;100794.89;1710700;82;21069;-46
2022/08/11 01:36:07;;;;;;;8.60;5.37;;;;;;;19.53;71.32;100797.39;1687038;83;21134;-46
2022/08/11 01:39:10;;;;;;;7.95;5.28;;;;;;;19.54;71.31;100793.73;1743766;80;21120;-46
2022/08/11 01:45:03;;;;;;;6.83;4.97;;;;;;;19.48;71.38;100801.42;1746908;80;21064;-47
2022/08/11 01:47:50;;;;;;;7.87;4.50;;;;;;;19.43;71.72;100802.91;1729283;80;21067;-46
2022/08/11 01:50:55;;;;;;;6.85;4.37;;;;;;;19.41;71.64;100805.75;1750898;80;21073;-46
2022/08/11 01:53:51;;;;;;;6.30;4.83;;;;;;;19.44;71.68;100804.08;1750914;80;21146;-46
2022/08/11 01:56:41;;;;;;;9.20;4.80;;;;;;;19.48;71.67;100803.23;1748398;80;21012;-46
2022/08/11 01:59:32;;;;;;;8.93;4.90;;;;;;;19.47;71.59;100794.41;1753706;80;21047;-47
2022/08/11 02:02:46;;;;;;;7.75;5.75;;;;;;;19.45;71.66;100795.08;1690952;82;21090;-46
2022/08/11 02:05:44;;;;;;;10.48;5.25;;;;;;;19.43;71.76;100791.76;1713771;82;21109;-46
2022/08/11 02:08:32;;;;;;;10.88;5.60;;;;;;;19.45;71.54;100787.08;1763205;80;21104;-46
2022/08/11 02:14:40;;;;;;;9.38;5.17;;;;;;;19.49;71.67;100784.89;1755496;80;21621;-46
2022/08/11 02:17:29;;;;;;;7.37;5.33;;;;;;;19.48;71.65;100781.40;1756283;80;21046;-46
2022/08/11 02:26:24;;;;;;;8.18;4.90;;;;;;;19.49;71.76;100773.70;1759022;79;21125;-46
2022/08/11 02:29:16;;;;;;;7.67;5.05;;;;;;;19.44;71.87;100777.91;1757210;80;20992;-46
2022/08/11 02:35:12;;;;;;;7.25;5.25;;;;;;;19.30;72.12;100771.44;1734540;82;21178;-46
2022/08/11 02:37:58;;;;;;;8.85;5.22;;;;;;;19.28;72.21;100768.09;1733268;81;21115;-45
2022/08/11 02:40:33;;;;;;;10.18;6.08;;;;;;;19.28;72.37;100765.42;1740238;81;21049;-46
2022/08/11 02:43:15;;;;;;;9.28;4.97;;;;;;;19.27;72.35;100769.94;1739906;81;22483;-46
2022/08/11 02:46:19;;;;;;;7.40;5.60;;;;;;;19.24;72.41;100764.11;1732308;81;21043;-46
2022/08/11 02:52:11;;;;;;;9.53;6.37;;;;;;;19.25;72.76;100768.45;1675316;84;21125;-46
2022/08/11 02:55:15;;;;;;;8.40;5.87;;;;;;;19.25;72.78;100767.12;1671727;85;21042;-46
2022/08/11 02:57:45;;;;;;;8.55;6.60;;;;;;;19.23;73.01;100767.77;1732038;82;21072;-46
2022/08/11 03:00:15;;;;;;;12.25;6.00;;;;;;;19.23;73.36;100768.63;1733220;82;21096;-46
2022/08/11 03:03:05;;;;;;;9.03;6.10;;;;;;;19.25;72.90;100770.61;1732076;81;21149;-46
2022/08/11 03:05:43;;;;;;;8.00;6.08;;;;;;;19.27;73.26;100765.11;1728194;82;21226;-46
2022/08/11 03:08:51;;;;;;;9.25;7.53;;;;;;;19.26;73.33;100767.44;1720237;82;21053;-46
2022/08/11 03:18:07;;;;;;;9.88;6.90;;;;;;;19.29;72.90;100780.44;1680704;84;21565;-45
2022/08/11 03:20:50;;;;;;;11.55;7.53;;;;;;;19.25;72.88;100781.80;1678047;84;21511;-45
2022/08/11 03:23:36;;;;;;;8.60;6.30;;;;;;;19.24;72.82;100784.12;1734700;82;21113;-45
2022/08/11 03:26:26;;;;;;;8.55;6.95;;;;;;;19.23;72.86;100791.78;1710759;82;28327;-45
2022/08/11 03:29:07;;;;;;;10.80;7.40;;;;;;;19.23;73.04;100794.45;1739510;81;21335;-45
2022/08/11 03:32:00;;;;;;;8.53;6.40;;;;;;;19.21;73.02;100795.12;1736185;81;21136;-47
2022/08/11 03:34:28;;;;;;;8.35;6.33;;;;;;;19.21;73.06;100793.79;1742702;80;21132;-45
2022/08/11 03:37:47;;;;;;;9.15;6.70;;;;;;;19.25;73.05;100796.47;1762708;79;21540;-45
2022/08/11 03:40:13;;;;;;;11.83;7.12;;;;;;;19.25;72.87;100787.13;1711073;82;21137;-45
2022/08/11 03:42:55;;;;;;;10.28;6.25;;;;;;;19.20;72.81;100786.78;1752585;80;21068;-46
2022/08/11 03:45:27;;;;;;;9.13;5.83;;;;;;;19.15;72.93;100786.45;1753843;80;21074;-47
2022/08/11 03:48:33;;;;;;;7.95;4.78;;;;;;;19.14;72.76;100784.81;1756316;80;21707;-46
2022/08/11 03:51:16;;;;;;;9.08;6.12;;;;;;;19.12;72.74;100800.98;1754506;80;21021;-46
2022/08/11 03:54:14;;;;;;;9.10;6.50;;;;;;;19.05;73.26;100786.66;1755763;80;21059;-45
2022/08/11 03:57:18;;;;;;;7.20;5.40;;;;;;;19.04;73.19;100785.80;1760863;80;21170;-46
2022/08/11 04:00:09;;;;;;;9.23;5.72;;;;;;;19.04;73.54;100783.14;1750229;80;21066;-46
2022/08/11 04:03:20;;;;;;;9.88;5.72;;;;;;;19.04;73.80;100793.80;1757776;80;21135;-45
2022/08/11 04:06:14;;;;;;;8.78;5.72;;;;;;;18.99;73.81;100776.14;1755300;80;21549;-46
2022/08/11 04:09:16;;;;;;;11.50;6.45;;;;;;;18.98;73.60;100789.16;1628605;86;21160;-45
2022/08/11 04:12:33;;;;;;;8.80;7.20;;;;;;;19.01;73.94;100779.47;1563177;90;21704;-45
2022/08/11 04:18:44;;;;;;;11.63;9.25;;;;;;;19.02;74.04;100778.48;1751209;80;21122;-45
2022/08/11 04:21:43;;;;;;;11.33;9.08;;;;;;;19.08;73.57;100760.96;1756413;79;21101;-46
2022/08/11 04:24:35;;;;;;;11.83;8.18;;;;;;;19.08;73.57;100760.96;1753309;80;21487;-46
2022/08/11 04:27:48;;;;;;;11.30;8.43;;;;;;;19.09;73.68;100740.79;1756558;80;21054;-46
2022/08/11 04:30:58;;;;;;;12.28;7.95;;;;;;;19.06;73.68;100729.16;1752622;80;21059;-46
2022/08/11 04:34:19;;;;;;;10.85;8.35;;;;;;;19.00;74.12;100731.16;1737119;80;21139;-45
2022/08/11 04:37:33;;;;;;;14.03;8.25;;;;;;;18.99;73.93;100721.48;1749640;80;21072;-45
2022/08/11 04:40:43;;;;;;;11.50;8.95;;;;;;;18.97;73.93;100716.00;1763514;80;21507;-45
2022/08/11 04:43:48;;;;;;;10.20;8.65;;;;;;;18.91;74.13;100721.01;1760805;80;21658;-45
2022/08/11 04:46:40;;;;;;;10.23;8.73;;;;;;;18.95;74.08;100729.50;1757855;80;21058;-46
2022/08/11 05:02:30;;;;;;;10.32;8.53;;;;;;;19.05;73.97;100740.81;1760840;80;21557;-47
2022/08/11 05:05:34;;;;;;;10.68;7.67;;;;;;;19.04;73.90;100744.47;1754064;80;21148;-47
2022/08/11 05:08:44;;;;;;;10.28;7.75;;;;;;;19.02;73.79;100755.81;1754084;80;21141;-47
2022/08/11 05:11:50;;;;;;;8.58;5.87;;;;;;;19.02;73.89;100781.14;1761953;80;21613;-47
2022/08/11 05:34:52;;;;;;;10.13;6.78;;;;;;;19.42;74.22;100810.09;1752319;80;21134;-46
2022/08/11 05:37:31;;;;;;;11.48;6.65;;;;;;;19.49;74.06;100800.91;1751373;80;21548;-47
2022/08/11 05:56:45;;;;;;;8.30;6.22;;;;;;;20.03;72.83;100786.36;1769025;80;21071;-45
2022/08/11 05:59:16;;;;;;;7.75;6.05;;;;;;;20.10;73.06;100787.00;1758071;80;21565;-46
2022/08/11 06:01:43;;;;;;;6.97;5.10;;;;;;;20.20;72.92;100793.77;1764878;79;21110;-46
2022/08/11 06:04:20;;;;;;;12.98;6.30;;;;;;;20.36;72.61;100804.06;1764643;80;21090;-46
2022/08/11 06:07:04;;;;;;;10.35;6.42;;;;;;;20.51;71.53;100813.46;1762749;80;21252;-46
2022/08/11 06:09:41;;;;;;;9.15;6.53;;;;;;;20.58;71.50;100820.60;1769872;80;22545;-47
2022/08/11 06:12:16;;;;;;;10.18;7.33;;;;;;;20.68;71.27;100823.08;1764583;80;21506;-46
2022/08/11 06:14:44;;;;;;;8.88;6.72;;;;;;;20.79;70.43;100821.81;1766891;80;21506;-47
2022/08/11 06:17:12;;;;;;;7.78;5.80;;;;;;;20.79;69.55;100825.83;1783455;80;21007;-46
2022/08/11 06:19:41;;;;;;;8.90;6.50;;;;;;;20.81;69.33;100822.45;1771787;80;21181;-47
2022/08/11 06:22:10;;;;;;;8.40;6.37;;;;;;;20.85;69.17;100821.62;1776057;80;21057;-47
2022/08/11 06:24:41;;;;;;;8.98;6.62;;;;;;;20.83;69.20;100824.95;1767312;80;21129;-47
2022/08/11 06:27:08;;;;;;;8.58;6.28;;;;;;;20.75;69.37;100825.87;1756313;80;21086;-46
2022/08/11 06:29:40;;;;;;;8.30;6.30;;;;;;;20.69;69.24;100820.71;1775525;80;21097;-47
2022/08/11 06:32:05;;;;;;;8.75;5.22;;;;;;;20.67;69.55;100817.39;1772041;79;21141;-47
2022/08/11 06:35:22;;;;;;;7.33;6.17;;;;;;;20.73;69.80;100820.70;1769863;80;21066;-46
2022/08/11 06:38:03;;;;;;;8.68;6.12;;;;;;;20.80;69.80;100824.83;1780065;80;21113;-47
2022/08/11 06:44:12;;;;;;;8.53;6.17;;;;;;;20.84;68.95;100830.13;1724294;81;21121;-47
2022/08/11 06:46:46;;;;;;;7.35;6.05;;;;;;;20.84;68.86;100845.35;1714367;82;22053;-47
2022/08/11 06:52:09;;;;;;;7.28;5.62;;;;;;;20.81;69.19;100841.69;1690974;83;21031;-46
2022/08/11 06:54:40;;;;;;;9.85;6.40;;;;;;;20.74;69.12;100845.59;1703605;83;21119;-46
2022/08/11 07:03:10;;;;;;;7.45;5.90;;;;;;;20.64;69.76;100820.41;1755076;80;21095;-48
2022/08/11 07:05:48;;;;;;;8.75;6.75;;;;;;;20.55;70.22;100806.77;1752374;80;21106;-47
2022/08/11 07:28:54;;;;;;;7.12;5.47;;;;;;;20.36;71.62;100790.19;1749931;80;21028;-47
2022/08/11 07:29:00;;;;;;;7.73;5.93;;;;;;;20.59;70.33;100778.17;1745628;80;21144;-47
2022/08/11 07:31:36;;;;;;;9.35;5.50;;;;;;;20.58;70.29;100773.00;1758197;80;21529;-47
2022/08/11 07:34:24;;;;;;;8.35;5.78;;;;;;;20.62;70.10;100780.97;1756500;79;21051;-46
2022/08/11 07:36:59;;;;;;;8.25;6.50;;;;;;;20.65;70.24;100772.63;1749752;79;21106;-47
2022/08/11 07:39:29;;;;;;;6.55;4.92;;;;;;;20.66;70.29;100766.28;1751431;80;21071;-47
2022/08/11 07:41:57;;;;;;;7.35;4.87;;;;;;;20.68;69.78;100798.16;1691408;84;21148;-47
2022/08/11 07:44:27;;;;;;;7.03;5.10;;;;;;;20.73;70.11;100807.33;1756132;80;21063;-47
2022/08/11 07:52:32;;;;;;;7.00;4.95;;;;;;;20.89;69.14;100796.98;1756011;80;22336;-47
2022/08/11 07:55:05;;;;;;;6.62;4.80;;;;;;;20.85;68.95;100797.03;1765509;80;21138;-47
2022/08/11 08:19:43;;;;;;;6.90;4.28;;;;;;;20.81;69.78;100804.25;1755647;80;21193;-47
2022/08/11 08:22:11;;;;;;;6.83;4.50;;;;;;;20.82;69.50;100802.73;1768070;80;21164;-47
2022/08/11 08:24:40;;;;;;;7.40;4.78;;;;;;;20.81;69.97;100799.72;1766646;80;21098;-47
2022/08/11 08:27:11;;;;;;;6.97;4.92;;;;;;;20.82;70.00;100797.91;1711236;82;21526;-47
2022/08/11 08:32:22;;;;;;;6.47;4.47;;;;;;;20.85;70.45;100806.39;1764808;80;21059;-47
2022/08/11 08:34:50;;;;;;;7.00;5.00;;;;;;;20.89;70.14;100801.00;1762479;80;21094;-47
2022/08/11 08:37:20;;;;;;;6.55;4.65;;;;;;;20.90;70.54;100808.02;1761898;80;20996;-47
2022/08/11 08:39:47;;;;;;;5.70;4.33;;;;;;;20.88;70.05;100799.84;1760660;80;21121;-49
2022/08/11 08:42:30;;;;;;;6.08;4.47;;;;;;;20.77;70.13;100801.11;1766246;80;21180;-47
2022/08/11 08:45:09;;;;;;;6.12;4.67;;;;;;;20.78;70.46;100801.45;1755772;80;21090;-47
2022/08/11 08:47:41;;;;;;;7.33;4.90;;;;;;;20.84;70.55;100802.05;1752818;80;21126;-47
2022/08/11 08:50:20;;;;;;;7.65;5.10;;;;;;;20.93;70.61;100804.99;1748128;80;21087;-47
2022/08/11 08:52:51;;;;;;;7.22;4.85;;;;;;;20.99;70.22;100802.09;1757157;80;21055;-47
2022/08/11 08:55:18;;;;;;;7.12;5.08;;;;;;;21.11;69.87;100803.81;1752767;80;21062;-47
2022/08/11 08:57:45;;;;;;;7.10;5.08;;;;;;;21.26;69.54;100803.33;1750477;80;21602;-47
2022/08/11 09:00:14;;;;;;;6.85;5.17;;;;;;;21.33;68.33;100806.95;1762405;80;21058;-46
2022/08/11 09:02:42;;;;;;;6.65;4.90;;;;;;;21.27;68.46;100806.34;1758856;80;21051;-47
2022/08/11 09:05:09;;;;;;;6.70;5.35;;;;;;;21.24;68.74;100807.22;1771238;80;21057;-48
2022/08/11 09:07:35;;;;;;;6.75;5.35;;;;;;;21.22;68.81;100792.67;1769108;80;21043;-47
2022/08/11 09:10:04;;;;;;;8.30;6.08;;;;;;;21.20;68.68;100804.08;1771075;80;21153;-51
2022/08/11 09:12:31;;;;;;;8.50;5.45;;;;;;;21.18;69.05;100801.25;1761724;80;21076;-47
2022/08/11 09:15:07;;;;;;;6.92;5.17;;;;;;;21.15;69.04;100797.11;1770939;80;21070;-47
2022/08/11 09:17:34;;;;;;;6.80;5.12;;;;;;;21.17;69.35;100791.58;1757100;80;21361;-46
2022/08/11 09:20:20;;;;;;;7.28;4.85;;;;;;;21.20;68.83;100795.20;1748688;80;21067;-46
2022/08/11 09:28:20;;;;;;;7.87;5.45;;;;;;;21.13;69.60;100797.77;1770643;80;21050;-47
2022/08/11 09:30:52;;;;;;;8.20;5.95;;;;;;;21.19;69.17;100801.06;1759720;80;21031;-47
2022/08/11 09:33:18;;;;;;;7.55;5.80;;;;;;;21.25;69.18;100796.33;1755889;80;21094;-47
2022/08/11 09:35:46;;;;;;;7.03;5.50;;;;;;;21.28;69.04;100786.61;1771754;80;21767;-46
2022/08/11 09:41:04;;;;;;;6.92;5.25;;;;;;;21.44;68.73;100780.74;1755914;80;21059;-46
2022/08/11 09:46:16;;;;;;;8.10;5.75;;;;;;;21.61;68.49;100786.77;1759141;80;21544;-46
2022/08/11 09:48:44;;;;;;;9.78;6.50;;;;;;;21.74;68.51;100787.43;1753371;80;21565;-46
2022/08/11 09:51:11;;;;;;;8.43;6.50;;;;;;;21.91;67.75;100771.49;1756451;80;21121;-46
2022/08/11 09:53:41;;;;;;;8.30;6.53;;;;;;;22.03;67.27;100775.85;1757867;80;20931;-46
2022/08/11 09:59:03;;;;;;;8.85;6.58;;;;;;;22.14;67.17;100770.50;1759930;79;21047;-46
2022/08/11 10:01:40;;;;;;;8.45;6.70;;;;;;;22.22;66.12;100774.41;1748154;80;20925;-46
2022/08/11 10:04:15;;;;;;;9.28;7.10;;;;;;;22.28;65.93;100771.00;1754470;80;21162;-46
2022/08/11 10:07:02;;;;;;;7.62;6.05;;;;;;;22.28;66.13;100771.00;1746322;80;21127;-47
2022/08/11 10:09:40;;;;;;;7.12;5.55;;;;;;;22.30;66.38;100772.97;1754365;80;21051;-46
2022/08/11 10:12:36;;;;;;;7.72;6.37;;;;;;;22.40;66.23;100773.48;1750258;80;21071;-46
2022/08/11 10:20:42;;;;;;;8.00;6.08;;;;;;;22.54;65.84;100768.25;1759780;80;21029;-46
2022/08/11 10:28:39;;;;;;;8.15;6.33;;;;;;;22.76;65.07;100771.74;1721710;80;21053;-46
2022/08/11 10:33:59;;;;;;;8.68;7.08;;;;;;;22.75;64.87;100767.42;1757135;80;21064;-46
2022/08/11 10:36:44;;;;;;;8.50;6.83;;;;;;;22.79;65.11;100760.11;1755828;80;21039;-46
2022/08/11 10:39:16;;;;;;;8.55;6.92;;;;;;;22.81;65.08;100760.77;1751035;80;21087;-46
2022/08/11 10:44:28;;;;;;;8.95;7.30;;;;;;;22.84;65.23;100756.03;1717282;82;21465;-46
2022/08/11 10:49:40;;;;;;;10.60;7.00;;;;;;;23.03;65.08;100753.98;1764359;80;21029;-46
2022/08/11 11:00:23;;;;;;;10.38;7.25;;;;;;;23.35;64.41;100741.00;1763567;80;21074;-47
2022/08/11 11:02:50;;;;;;;8.98;6.87;;;;;;;23.49;64.31;100727.97;1765500;80;21101;-46
2022/08/11 11:05:29;;;;;;;9.28;7.78;;;;;;;23.59;64.40;100732.13;1774704;80;21043;-46
2022/08/11 11:08:51;;;;;;;11.38;7.95;;;;;;;23.62;63.71;100724.52;1727352;82;21588;-47
2022/08/11 11:10:39;;;;;;;11.80;7.50;;;;;;;23.65;63.42;100732.67;1771277;80;21887;-47
2022/08/11 11:18:36;;;;;;;8.63;6.90;;;;;;;23.76;63.39;100733.45;1775657;80;21483;-46
2022/08/11 11:21:06;;;;;;;9.05;7.03;;;;;;;23.84;63.50;100727.94;1768689;80;21533;-46
2022/08/11 11:23:53;;;;;;;10.28;7.72;;;;;;;23.96;63.69;100730.05;1765386;80;21106;-46
2022/08/11 11:26:28;;;;;;;8.55;7.60;;;;;;;24.09;63.71;100722.83;1776193;80;21031;-46
2022/08/11 11:29:08;;;;;;;10.95;8.15;;;;;;;24.20;63.25;100733.48;1770519;80;21517;-46
2022/08/11 11:32:09;;;;;;;9.33;7.12;;;;;;;24.29;63.15;100747.06;1763599;80;21042;-46
2022/08/11 11:34:53;;;;;;;8.08;6.92;;;;;;;24.39;62.88;100736.41;1777215;80;21050;-46
2022/08/11 11:37:22;;;;;;;10.18;7.83;;;;;;;24.56;62.65;100739.05;1775583;80;21144;-46
2022/08/11 11:39:48;;;;;;;9.35;7.37;;;;;;;24.68;62.05;100741.95;1770694;80;21098;-46
2022/08/11 11:42:14;;;;;;;8.68;7.22;;;;;;;24.78;62.37;100746.39;1763260;80;21006;-46
2022/08/11 11:44:43;;;;;;;7.17;6.47;;;;;;;24.90;62.34;100743.90;1772041;80;21117;-46
2022/08/11 11:47:13;;;;;;;10.25;7.37;;;;;;;25.02;61.48;100740.05;1763782;80;21121;-46
2022/08/11 11:49:42;;;;;;;8.85;7.95;;;;;;;25.15;61.45;100733.80;1757827;80;21124;-46
2022/08/11 11:52:18;;;;;;;9.15;8.25;;;;;;;25.36;60.42;100737.61;1771328;80;21075;-46
2022/08/11 11:54:53;;;;;;;8.58;7.67;;;;;;;25.52;59.21;100741.71;1770952;80;21058;-46
2022/08/11 12:02:55;;;;;;;8.80;7.60;;;;;;;25.78;57.16;100748.84;1781172;80;21126;-46
2022/08/11 12:05:21;;;;;;;9.53;8.20;;;;;;;25.89;57.29;100739.77;1766750;80;21061;-49
2022/08/11 12:10:33;;;;;;;10.43;7.95;;;;;;;25.97;56.74;100745.47;1765022;80;21525;-46
2022/08/11 12:15:48;;;;;;;8.83;7.78;;;;;;;25.82;56.52;100752.45;1761486;80;21144;-46
2022/08/11 12:18:14;;;;;;;8.65;7.75;;;;;;;25.66;57.32;100754.60;1756947;80;21074;-46
2022/08/11 12:20:42;;;;;;;8.58;7.67;;;;;;;25.66;58.34;100759.99;1768071;80;21062;-47
2022/08/11 12:28:39;;;;;;;10.08;8.00;;;;;;;26.07;57.49;100750.69;1750851;82;21517;-46
2022/08/11 12:31:05;;;;;;;9.48;7.78;;;;;;;26.07;57.25;100750.69;1756986;80;21105;-46
2022/08/11 12:33:32;;;;;;;9.10;8.05;;;;;;;26.00;56.56;100749.91;1750526;80;21118;-46
2022/08/11 12:35:59;;;;;;;10.23;7.87;;;;;;;25.88;57.53;100748.38;1760018;80;21094;-46
2022/08/11 12:38:26;;;;;;;9.75;7.95;;;;;;;25.83;57.64;100751.42;1773922;80;21094;-46
2022/08/11 12:46:33;;;;;;;9.43;7.95;;;;;;;25.59;57.66;100746.55;1764339;80;20996;-47
2022/08/11 12:52:00;;;;;;;11.63;7.67;;;;;;;25.30;59.02;100745.20;1751767;81;21042;-46
2022/08/11 12:54:56;;;;;;;10.15;8.75;;;;;;;25.22;59.54;100742.17;1760909;81;21958;-46
2022/08/11 13:06:00;;;;;;;10.25;8.80;;;;;;;25.10;60.43;100748.41;1750657;81;21003;-46
2022/08/11 13:08:28;;;;;;;8.93;7.70;;;;;;;25.25;60.18;100744.98;1753976;81;21250;-47
2022/08/11 13:13:44;;;;;;;10.50;9.45;;;;;;;25.40;59.93;100741.55;1743260;81;21072;-46
2022/08/11 13:16:11;;;;;;;12.03;8.88;;;;;;;25.44;59.75;100740.59;1751855;81;21181;-46
2022/08/11 13:18:41;;;;;;;11.35;9.18;;;;;;;25.46;59.82;100740.39;1737059;81;21056;-46
2022/08/11 13:21:07;;;;;;;11.38;9.23;;;;;;;25.45;59.74;100738.19;1748522;81;21980;-46
2022/08/11 13:23:34;;;;;;;9.53;8.40;;;;;;;25.43;60.02;100741.63;1754722;80;21571;-46
2022/08/11 13:26:00;;;;;;;9.38;8.35;;;;;;;25.50;60.38;100741.11;1693666;81;21521;-46
2022/08/11 13:28:27;;;;;;;10.48;8.60;;;;;;;25.63;60.03;100745.59;1756500;81;21059;-46
2022/08/11 13:31:13;;;;;;;9.25;8.15;;;;;;;25.70;59.98;100742.34;1764535;81;21066;-46
2022/08/11 13:33:50;;;;;;;11.80;8.50;;;;;;;25.73;59.25;100743.27;1765045;80;21436;-46
2022/08/11 13:36:19;;;;;;;10.08;8.95;;;;;;;25.69;59.16;100747.98;1747813;80;21083;-46
2022/08/11 13:38:45;;;;;;;9.83;8.83;;;;;;;25.62;59.37;100748.00;1753151;80;21677;-46
2022/08/11 13:43:56;;;;;;;10.55;8.63;;;;;;;25.48;59.20;100735.61;1764048;81;21086;-46
2022/08/11 13:46:23;;;;;;;9.68;8.25;;;;;;;25.48;59.06;100735.61;1748230;81;21321;-46
2022/08/11 13:48:52;;;;;;;9.65;8.65;;;;;;;25.55;59.37;100735.05;1750489;81;21097;-46
2022/08/11 13:51:34;;;;;;;10.78;9.08;;;;;;;25.80;58.75;100738.37;1755420;80;21652;-46
2022/08/11 13:54:14;;;;;;;11.55;9.30;;;;;;;26.12;57.80;100741.42;1749502;80;21566;-46
2022/08/11 13:56:42;;;;;;;11.48;9.83;;;;;;;26.24;56.92;100745.63;1745274;80;21118;-46
2022/08/11 13:59:08;;;;;;;11.95;9.55;;;;;;;26.21;57.35;100740.66;1743760;80;21226;-46
2022/08/11 14:01:41;;;;;;;12.07;9.78;;;;;;;26.18;57.14;100742.97;1750024;80;21061;-46
2022/08/11 14:04:29;;;;;;;12.00;10.10;;;;;;;26.12;57.60;100742.77;1750101;80;21047;-47
2022/08/11 14:06:59;;;;;;;10.50;9.40;;;;;;;26.08;57.97;100743.45;1756803;80;21084;-47
2022/08/11 14:09:29;;;;;;;11.15;9.13;;;;;;;26.07;58.11;100746.64;1757070;80;21046;-47
2022/08/11 14:14:43;;;;;;;12.30;9.58;;;;;;;26.27;58.15;100742.47;1752165;80;21147;-47
2022/08/11 14:17:09;;;;;;;9.83;8.83;;;;;;;26.33;57.81;100739.44;1749299;80;21102;-47
2022/08/11 14:19:39;;;;;;;11.90;10.70;;;;;;;26.27;57.56;100738.95;1752026;80;21077;-47
2022/08/11 14:22:06;;;;;;;10.45;9.43;;;;;;;26.16;57.77;100742.34;1758540;80;21332;-47
2022/08/11 14:24:39;;;;;;;14.40;10.70;;;;;;;26.06;58.36;100738.80;1743961;80;21151;-47
2022/08/11 14:27:08;;;;;;;13.28;10.72;;;;;;;25.98;58.31;100737.17;1752273;80;21020;-46
2022/08/11 14:29:37;;;;;;;17.45;10.90;;;;;;;25.87;58.63;100743.20;1749306;80;21697;-47
2022/08/11 14:32:06;;;;;;;12.37;11.18;;;;;;;25.73;59.12;100739.75;1746112;80;21063;-47
2022/08/11 14:34:35;;;;;;;11.18;9.78;;;;;;;25.63;59.61;100737.51;1747346;80;21068;-47
2022/08/11 14:37:06;;;;;;;11.88;10.58;;;;;;;25.63;59.74;100734.81;1745253;79;21320;-47
2022/08/11 14:39:34;;;;;;;11.88;10.13;;;;;;;25.58;59.32;100729.24;1758207;80;21034;-47
2022/08/11 14:47:42;;;;;;;12.50;10.60;;;;;;;25.49;60.46;100729.19;1751053;80;21075;-47
2022/08/11 14:50:21;;;;;;;12.90;10.58;;;;;;;25.48;60.53;100731.56;1752330;80;21757;-46
2022/08/11 14:52:57;;;;;;;10.40;9.25;;;;;;;25.45;60.70;100727.95;1761014;80;21054;-48
2022/08/11 14:58:18;;;;;;;12.55;11.30;;;;;;;25.54;60.60;100727.50;1763969;80;21059;-47
2022/08/11 15:00:45;;;;;;;12.50;11.30;;;;;;;25.66;60.46;100728.19;1753402;80;21111;-47
2022/08/11 15:03:13;;;;;;;12.18;10.82;;;;;;;25.78;60.33;100725.92;1752709;80;21077;-47
2022/08/11 15:05:51;;;;;;;12.33;11.12;;;;;;;25.97;59.84;100729.30;1761481;80;21565;-47
2022/08/11 15:08:18;;;;;;;11.78;10.58;;;;;;;26.15;59.62;100724.00;1767013;80;21091;-47
2022/08/11 15:10:46;;;;;;;13.35;11.95;;;;;;;26.33;58.81;100736.74;1760241;80;21467;-46
2022/08/11 15:13:17;;;;;;;13.10;11.73;;;;;;;26.47;58.41;100732.06;1763258;80;21042;-47
2022/08/11 15:18:29;;;;;;;11.00;9.90;;;;;;;27.48;56.99;100726.56;1752053;80;21565;-47
2022/08/11 15:37:44;;;;;;;11.43;10.15;;;;;;;27.88;54.14;100724.16;1753733;80;21094;-47
2022/08/11 15:46:02;;;;;;;11.57;9.50;;;;;;;27.47;55.24;100718.14;1757486;79;21089;-47
2022/08/11 15:48:34;;;;;;;12.23;9.98;;;;;;;27.17;56.29;100717.00;1745940;80;21064;-47
2022/08/11 15:51:10;;;;;;;11.48;9.60;;;;;;;26.94;57.02;100712.25;1759080;80;21357;-47
2022/08/11 15:53:48;;;;;;;10.45;9.35;;;;;;;26.76;57.65;100717.09;1765369;80;21646;-47
2022/08/11 15:56:14;;;;;;;10.60;9.50;;;;;;;26.63;58.10;100711.81;1750805;80;21133;-47
2022/08/11 16:04:25;;;;;;;11.80;10.20;;;;;;;26.44;58.95;100711.73;1745173;80;21055;-47
2022/08/11 16:07:04;;;;;;;12.25;9.73;;;;;;;26.45;58.88;100705.83;1749815;80;21050;-47
2022/08/11 16:09:45;;;;;;;12.45;11.15;;;;;;;26.40;59.01;100703.79;1751552;80;21080;-47
2022/08/11 16:12:21;;;;;;;12.68;9.93;;;;;;;26.31;59.14;100707.28;1765161;80;21094;-47
2022/08/11 16:17:43;;;;;;;9.90;8.90;;;;;;;26.10;60.04;100711.69;1746254;80;21285;-46
2022/08/11 16:20:11;;;;;;;10.63;9.03;;;;;;;26.05;60.22;100708.29;1757731;80;21507;-46
2022/08/11 16:22:47;;;;;;;10.23;9.13;;;;;;;26.02;60.43;100700.63;1724677;80;21098;-46
2022/08/11 16:25:08;;;;;;;13.30;10.18;;;;;;;25.97;60.56;100699.11;1762682;80;20992;-51
2022/08/11 16:27:40;;;;;;;12.40;10.03;;;;;;;25.95;60.77;100698.50;1768237;80;21058;-47
2022/08/11 16:30:07;;;;;;;11.73;9.93;;;;;;;25.92;60.91;100697.05;1749192;79;21117;-46
2022/08/11 16:32:37;;;;;;;10.85;9.75;;;;;;;25.85;61.10;100697.59;1747665;80;21042;-46
2022/08/11 16:40:42;;;;;;;10.75;9.50;;;;;;;25.67;61.71;100706.91;1757124;80;20986;-47
2022/08/11 16:48:42;;;;;;;14.18;9.80;;;;;;;25.47;62.43;100715.94;1766884;80;21139;-47
2022/08/11 16:51:11;;;;;;;10.90;9.63;;;;;;;25.39;62.70;100715.64;1775997;80;21030;-46
2022/08/11 16:53:38;;;;;;;11.15;9.13;;;;;;;25.36;62.98;100715.23;1770394;80;21141;-46
2022/08/11 16:56:06;;;;;;;10.85;9.48;;;;;;;25.35;62.97;100718.96;1769494;79;21054;-47